Time;durP1;ratioP1;P1;durP2;ratioP2;P2;SDS_P1;SDS_P2;PMS_P1;PMS_P2;Temp;Humidity;BMP_temperature;BMP_pressure;BME280_temperature;BME280_humidity;BME280_pressure;Samples;Min_cycle;Max_cycle;Signal;HPM_P1;HPM_P2
2022/12/20 00:12:51;;;;;;;145.10;83.13;;;13.40;2201.60;;;;;;4934483;29;20071;-76
2022/12/20 00:15:24;;;;;;;235.18;125.50;;;13.30;2201.60;;;;;;4913505;29;20270;-78
2022/12/20 00:18:01;;;;;;;207.93;105.47;;;13.30;2201.60;;;;;;4932626;29;20032;-78
2022/12/20 00:28:22;;;;;;;152.07;79.78;;;13.20;2201.60;;;;;;4938916;29;20034;-80
2022/12/20 01:25:24;;;;;;;187.38;101.63;;;13.30;2201.60;;;;;;4864732;29;20036;-78
2022/12/20 01:28:46;;;;;;;127.32;66.80;;;13.30;2201.60;;;;;;4846364;29;20068;-79
2022/12/20 01:31:41;;;;;;;118.45;61.75;;;13.60;2201.60;;;;;;4860535;29;20033;-79
2022/12/20 01:34:57;;;;;;;93.45;51.75;;;38.40;2201.60;;;;;;4937714;29;20072;-78
2022/12/20 01:38:24;;;;;;;90.07;52.30;;;38.50;2201.60;;;;;;4917197;29;20044;-80
2022/12/20 01:42:31;;;;;;;110.80;58.15;;;38.50;2201.60;;;;;;4912904;29;20035;-79
2022/12/20 01:46:00;;;;;;;106.45;53.53;;;38.40;2201.60;;;;;;4882356;29;20033;-79
2022/12/20 01:53:09;;;;;;;151.10;76.72;;;38.60;2201.60;;;;;;4858949;29;20169;-79
2022/12/20 01:57:03;;;;;;;122.23;57.60;;;38.50;2201.60;;;;;;4862101;29;20052;-78
2022/12/20 02:00:48;;;;;;;125.05;62.53;;;38.50;2201.60;;;;;;4748997;30;20041;-79
2022/12/20 02:03:30;;;;;;;131.65;66.85;;;38.40;2201.60;;;;;;4736360;30;20041;-79
2022/12/20 02:06:18;;;;;;;130.90;68.18;;;38.40;2201.60;;;;;;4735788;30;20065;-79
2022/12/20 02:09:08;;;;;;;163.27;80.57;;;38.50;2201.60;;;;;;4738800;30;20040;-79
2022/12/20 02:11:59;;;;;;;153.85;80.28;;;38.50;2201.60;;;;;;4735398;30;20093;-80
2022/12/20 02:15:20;;;;;;;123.80;63.95;;;38.50;2201.60;;;;;;4742458;30;20063;-79
2022/12/20 02:18:43;;;;;;;130.68;65.60;;;38.40;2201.60;;;;;;4764464;30;20042;-80
2022/12/20 02:21:51;;;;;;;111.78;59.20;;;38.50;2201.60;;;;;;4806416;29;20069;-78
2022/12/20 02:24:45;;;;;;;110.10;56.40;;;38.70;2201.60;;;;;;4805614;30;20055;-80
2022/12/20 02:27:49;;;;;;;120.93;59.67;;;38.60;2201.60;;;;;;4810756;29;20035;-79
2022/12/20 02:30:23;;;;;;;106.55;55.85;;;38.60;2201.60;;;;;;4860941;29;20105;-79
2022/12/20 02:32:57;;;;;;;97.50;52.60;;;38.60;2201.60;;;;;;4859909;29;20034;-80
2022/12/20 02:35:33;;;;;;;109.10;52.08;;;38.90;2201.60;;;;;;4863515;29;20030;-79
2022/12/20 02:38:05;;;;;;;94.20;49.80;;;38.70;2201.60;;;;;;4863865;29;20025;-81
2022/12/20 02:40:39;;;;;;;105.55;52.90;;;38.70;2201.60;;;;;;4878037;29;20034;-79
2022/12/20 02:46:32;;;;;;;107.30;50.58;;;38.80;2201.60;;;;;;4866031;29;20050;-80
2022/12/20 02:49:15;;;;;;;115.85;54.35;;;38.80;2201.60;;;;;;4880435;29;20042;-80
2022/12/20 02:51:58;;;;;;;100.97;53.03;;;38.80;2201.60;;;;;;4866420;29;20037;-79
2022/12/20 02:54:36;;;;;;;142.52;77.82;;;38.80;2201.60;;;;;;4857334;29;20029;-80
2022/12/20 02:57:38;;;;;;;115.53;60.92;;;38.80;2201.60;;;;;;4918728;29;20041;-80
2022/12/20 03:00:18;;;;;;;110.88;59.03;;;38.80;2201.60;;;;;;4902649;29;20110;-79
2022/12/20 03:05:50;;;;;;;104.97;55.55;;;38.90;2201.60;;;;;;4917505;29;20043;-80
2022/12/20 03:08:17;;;;;;;102.82;52.28;;;38.90;2201.60;;;;;;4902372;29;20035;-79
2022/12/20 03:10:44;;;;;;;96.13;49.20;;;38.80;2201.60;;;;;;4918896;29;20089;-78
2022/12/20 03:13:14;;;;;;;94.65;46.55;;;38.70;2201.60;;;;;;4921722;29;20029;-79
2022/12/20 03:15:43;;;;;;;89.85;45.53;;;38.80;2201.60;;;;;;4903261;29;20025;-80
2022/12/20 03:18:11;;;;;;;89.57;45.05;;;38.70;2201.60;;;;;;4917224;29;20092;-79
2022/12/20 03:20:40;;;;;;;89.53;43.67;;;38.70;2201.60;;;;;;4916454;29;20147;-79
2022/12/20 03:23:12;;;;;;;78.93;43.92;;;38.80;2201.60;;;;;;4916903;29;20397;-79
2022/12/20 03:25:40;;;;;;;79.07;41.35;;;38.90;2201.60;;;;;;4916633;29;20084;-80
2022/12/20 03:28:06;;;;;;;80.80;40.50;;;39.10;2201.60;;;;;;4900697;29;20214;-80
2022/12/20 03:30:37;;;;;;;82.50;39.97;;;39.10;2201.60;;;;;;4916364;29;20060;-80
2022/12/20 03:33:06;;;;;;;83.93;42.80;;;39.10;2201.60;;;;;;4917213;29;20024;-79
2022/12/20 03:35:33;;;;;;;82.00;40.13;;;39.30;2201.60;;;;;;4916810;29;20043;-79
2022/12/20 03:38:01;;;;;;;89.75;47.45;;;39.30;2201.60;;;;;;4916364;29;20020;-79
2022/12/20 03:40:27;;;;;;;73.78;40.22;;;64.30;2201.60;;;;;;4916490;29;20069;-79
2022/12/20 03:42:54;;;;;;;89.47;44.80;;;38.80;2201.60;;;;;;4901087;29;20032;-80
2022/12/20 03:45:20;;;;;;;104.60;53.35;;;38.60;2201.60;;;;;;4912241;29;20033;-80
2022/12/20 03:47:50;;;;;;;117.32;56.78;;;39.00;2201.60;;;;;;4913920;29;20069;-80
2022/12/20 03:50:19;;;;;;;134.98;66.07;;;39.10;2201.60;;;;;;4882346;29;20041;-80
2022/12/20 03:52:46;;;;;;;154.13;69.10;;;39.00;2201.60;;;;;;4897870;29;20033;-82
2022/12/20 03:55:19;;;;;;;139.32;66.57;;;39.10;2201.60;;;;;;4898191;29;20038;-80
2022/12/20 03:57:47;;;;;;;120.97;56.60;;;39.10;2201.60;;;;;;4896279;29;20030;-79
2022/12/20 04:00:16;;;;;;;122.53;60.95;;;38.50;2201.60;;;;;;4908963;29;20033;-81
2022/12/20 04:02:42;;;;;;;125.35;60.72;;;39.00;2201.60;;;;;;4910647;29;20109;-80
2022/12/20 04:05:10;;;;;;;105.47;55.95;;;39.00;2201.60;;;;;;4897353;29;20052;-80
2022/12/20 04:07:36;;;;;;;107.00;54.72;;;39.30;2201.60;;;;;;4896304;29;20029;-79
2022/12/20 04:10:04;;;;;;;126.07;64.00;;;39.00;2201.60;;;;;;4911113;29;20061;-79
2022/12/20 04:12:31;;;;;;;120.68;58.78;;;39.00;2201.60;;;;;;4897117;29;20066;-79
2022/12/20 04:14:57;;;;;;;98.65;52.45;;;39.20;2201.60;;;;;;4916046;29;20025;-79
2022/12/20 04:17:23;;;;;;;99.82;55.35;;;64.00;2201.60;;;;;;4919057;29;20119;-79
2022/12/20 04:19:49;;;;;;;102.45;54.28;;;64.00;2201.60;;;;;;4918167;29;20035;-80
2022/12/20 04:22:15;;;;;;;96.45;51.97;;;39.20;2201.60;;;;;;4920107;29;20035;-80
2022/12/20 04:24:41;;;;;;;89.63;49.03;;;64.10;2201.60;;;;;;4918796;29;20036;-79
2022/12/20 04:27:07;;;;;;;98.18;51.22;;;39.20;2201.60;;;;;;4918661;29;20040;-79
2022/12/20 04:29:33;;;;;;;100.43;53.78;;;39.20;2201.60;;;;;;4918394;29;20029;-79
2022/12/20 04:31:59;;;;;;;100.85;54.97;;;39.20;2201.60;;;;;;4918077;29;20035;-80
2022/12/20 04:34:26;;;;;;;103.95;55.20;;;64.00;2201.60;;;;;;4919688;29;20029;-80
2022/12/20 04:36:52;;;;;;;97.18;55.22;;;39.30;2201.60;;;;;;4917115;29;20021;-80
2022/12/20 04:39:18;;;;;;;93.35;50.80;;;64.00;2201.60;;;;;;4918312;29;20037;-80
2022/12/20 04:41:44;;;;;;;100.93;52.20;;;39.30;2201.60;;;;;;4917420;29;20080;-79
2022/12/20 04:44:14;;;;;;;105.90;54.03;;;39.30;2201.60;;;;;;4919573;29;20040;-79
2022/12/20 04:46:49;;;;;;;128.35;66.32;;;39.30;2201.60;;;;;;4919746;29;20032;-80
2022/12/20 04:49:15;;;;;;;145.07;74.65;;;39.20;2201.60;;;;;;4918463;29;20057;-79
2022/12/20 04:51:42;;;;;;;165.57;87.53;;;39.20;2201.60;;;;;;4903171;29;20032;-79
2022/12/20 04:54:08;;;;;;;161.07;85.53;;;39.10;2201.60;;;;;;4919518;29;20033;-78
2022/12/20 04:56:35;;;;;;;139.80;72.07;;;39.00;2201.60;;;;;;4919487;29;20084;-79
2022/12/20 04:59:01;;;;;;;125.15;68.00;;;64.00;2201.60;;;;;;4918620;29;20025;-79
2022/12/20 05:01:27;;;;;;;124.18;70.15;;;38.80;2201.60;;;;;;4918758;29;20032;-79
2022/12/20 05:03:53;;;;;;;115.40;60.60;;;13.70;2201.60;;;;;;4917915;29;20036;-80
2022/12/20 05:06:19;;;;;;;105.93;57.33;;;39.00;2201.60;;;;;;4918214;29;20058;-78
2022/12/20 05:08:46;;;;;;;115.78;58.78;;;39.20;2201.60;;;;;;4918287;29;20036;-80
2022/12/20 05:11:12;;;;;;;131.15;69.30;;;39.10;2201.60;;;;;;4917998;29;20021;-80
2022/12/20 05:13:38;;;;;;;109.25;61.42;;;0.00;2201.60;;;;;;4917411;29;20028;-79
2022/12/20 05:16:04;;;;;;;109.72;60.35;;;38.50;2201.60;;;;;;4902476;29;20036;-80
2022/12/20 05:18:31;;;;;;;110.60;59.58;;;64.00;2201.60;;;;;;4916947;29;20028;-80
2022/12/20 05:26:35;;;;;;;137.43;72.55;;;39.30;2201.60;;;;;;4917056;29;20039;-79
2022/12/20 05:29:03;;;;;;;131.13;67.75;;;39.20;2201.60;;;;;;4916641;29;20028;-78
2022/12/20 05:31:29;;;;;;;122.30;67.80;;;39.20;2201.60;;;;;;4916135;29;20025;-79
2022/12/20 05:33:55;;;;;;;121.57;64.13;;;39.10;2201.60;;;;;;4915919;29;20044;-79
2022/12/20 05:36:21;;;;;;;126.90;65.40;;;64.00;2201.60;;;;;;4916483;29;20020;-79
2022/12/20 05:38:47;;;;;;;124.93;67.18;;;39.10;2201.60;;;;;;4916882;29;20033;-79
2022/12/20 05:41:13;;;;;;;131.45;66.30;;;39.10;2201.60;;;;;;4916544;29;20024;-79
2022/12/20 05:43:39;;;;;;;125.07;67.10;;;38.70;2201.60;;;;;;4914540;29;20100;-79
2022/12/20 05:46:28;;;;;;;114.13;64.03;;;38.90;2201.60;;;;;;4918168;29;20028;-80
2022/12/20 05:48:57;;;;;;;120.72;66.38;;;39.10;2201.60;;;;;;4917731;29;20032;-79
2022/12/20 05:51:27;;;;;;;122.30;63.05;;;38.70;2201.60;;;;;;4908575;29;20065;-80
2022/12/20 05:54:14;;;;;;;133.95;71.85;;;38.70;2201.60;;;;;;4919496;29;20104;-80
2022/12/20 05:57:01;;;;;;;133.10;74.40;;;38.70;2201.60;;;;;;4906266;29;20037;-80
2022/12/20 05:59:57;;;;;;;118.57;59.33;;;38.80;2201.60;;;;;;4919087;29;20181;-80
2022/12/20 06:02:52;;;;;;;123.18;64.43;;;38.80;2201.60;;;;;;4904604;29;20052;-80
2022/12/20 06:05:25;;;;;;;132.40;68.10;;;38.80;2201.60;;;;;;4920092;29;20074;-80
2022/12/20 06:07:58;;;;;;;158.98;74.60;;;13.70;2201.60;;;;;;4911406;29;20033;-80
2022/12/20 06:10:34;;;;;;;135.40;69.50;;;39.20;2201.60;;;;;;4919386;29;20033;-80
2022/12/20 06:13:01;;;;;;;142.55;73.15;;;64.00;2201.60;;;;;;4904892;29;20037;-80
2022/12/20 06:15:40;;;;;;;141.60;77.22;;;64.00;2201.60;;;;;;4919282;29;20024;-79
2022/12/20 06:18:10;;;;;;;147.50;80.35;;;64.20;2201.60;;;;;;4921029;29;20036;-80
2022/12/20 06:21:04;;;;;;;137.98;72.00;;;64.10;2201.60;;;;;;4917963;29;20104;-80
2022/12/20 06:23:43;;;;;;;127.10;65.55;;;64.10;2201.60;;;;;;4917793;29;20139;-80
2022/12/20 06:26:36;;;;;;;128.15;67.00;;;64.00;2201.60;;;;;;4905294;29;20036;-80
2022/12/20 06:29:31;;;;;;;138.65;69.43;;;64.00;2201.60;;;;;;4906483;29;20033;-80
2022/12/20 06:32:08;;;;;;;132.02;72.30;;;64.00;2201.60;;;;;;4919658;29;20032;-80
2022/12/20 06:34:38;;;;;;;161.65;83.18;;;64.10;2201.60;;;;;;4902512;29;20029;-80
2022/12/20 06:37:09;;;;;;;139.98;76.35;;;64.20;2201.60;;;;;;4916217;29;20029;-80
2022/12/20 06:39:36;;;;;;;140.73;73.85;;;64.20;2201.60;;;;;;4916750;29;20028;-81
2022/12/20 06:42:07;;;;;;;146.63;79.30;;;64.20;2201.60;;;;;;4917420;29;20047;-80
2022/12/20 06:45:27;;;;;;;159.50;81.13;;;64.20;2201.60;;;;;;4919367;29;20024;-80
2022/12/20 06:48:10;;;;;;;284.95;137.95;;;64.20;2201.60;;;;;;4918359;29;20032;-80
2022/12/20 06:50:54;;;;;;;478.50;243.77;;;64.20;2201.60;;;;;;4919226;29;20033;-80
2022/12/20 06:53:35;;;;;;;217.93;117.25;;;64.20;2201.60;;;;;;4918662;29;20037;-79
2022/12/20 06:56:35;;;;;;;165.15;91.00;;;64.10;2201.60;;;;;;4916879;29;20057;-80
2022/12/20 07:00:00;;;;;;;258.40;154.05;;;64.00;2201.60;;;;;;4887734;29;20040;-80
2022/12/20 07:03:20;;;;;;;178.27;105.80;;;64.00;2201.60;;;;;;4930914;29;20268;-81
2022/12/20 07:06:23;;;;;;;151.60;91.15;;;64.10;2201.60;;;;;;4926741;29;20067;-81
2022/12/20 07:09:19;;;;;;;218.70;127.43;;;64.00;2201.60;;;;;;4879625;29;20037;-81
2022/12/20 07:11:58;;;;;;;220.07;132.73;;;64.20;2201.60;;;;;;4925307;29;20028;-80
2022/12/20 07:15:15;;;;;;;190.10;108.72;;;64.10;2201.60;;;;;;4901382;29;20028;-80
2022/12/20 07:18:07;;;;;;;187.88;104.15;;;64.00;2201.60;;;;;;4916748;29;20096;-79
2022/12/20 07:21:18;;;;;;;183.30;103.65;;;64.00;2201.60;;;;;;4915280;29;20037;-81
2022/12/20 07:26:59;;;;;;;212.77;120.55;;;39.20;2201.60;;;;;;4917511;29;20070;-80
2022/12/20 07:30:09;;;;;;;236.27;127.50;;;39.00;2201.60;;;;;;4886557;29;20025;-81
2022/12/20 07:33:04;;;;;;;231.70;127.22;;;38.90;2201.60;;;;;;4884658;29;20036;-80
2022/12/20 07:35:38;;;;;;;253.85;134.57;;;38.90;2201.60;;;;;;4889731;29;20036;-80
2022/12/20 07:38:06;;;;;;;230.98;124.85;;;38.70;2201.60;;;;;;4902453;29;20028;-80
2022/12/20 07:40:34;;;;;;;235.95;128.18;;;38.40;2201.60;;;;;;4887322;29;20040;-80
2022/12/20 07:43:05;;;;;;;219.63;123.50;;;38.50;2201.60;;;;;;4919036;29;20048;-80
2022/12/20 07:46:24;;;;;;;213.48;120.53;;;38.60;2201.60;;;;;;4917443;29;20036;-81
2022/12/20 07:49:58;;;;;;;234.57;127.82;;;38.40;2201.60;;;;;;4937392;29;20023;-80
2022/12/20 07:53:19;;;;;;;145.52;80.15;;;38.50;2201.60;;;;;;4941680;29;20103;-80
2022/12/20 07:56:32;;;;;;;141.25;77.85;;;38.40;2201.60;;;;;;4936646;29;20032;-80
2022/12/20 07:59:31;;;;;;;104.85;56.08;;;38.40;2201.60;;;;;;4912475;29;20036;-80
2022/12/20 08:02:46;;;;;;;86.40;46.28;;;38.50;2201.60;;;;;;4925164;29;20032;-81
2022/12/20 08:06:05;;;;;;;104.47;59.08;;;38.50;2201.60;;;;;;4904522;29;20078;-80
2022/12/20 08:09:24;;;;;;;93.85;52.63;;;38.40;2201.60;;;;;;4905176;29;20104;-81
2022/12/20 08:13:03;;;;;;;104.78;57.25;;;13.60;2201.60;;;;;;4864231;29;20033;-78
2022/12/20 08:16:07;;;;;;;98.97;50.78;;;13.40;2201.60;;;;;;4839277;29;20025;-78
2022/12/20 08:19:25;;;;;;;102.53;53.13;;;13.40;2201.60;;;;;;4837658;29;20093;-78
2022/12/20 08:23:05;;;;;;;106.47;54.15;;;13.50;2201.60;;;;;;4870812;29;20097;-79
2022/12/20 08:26:36;;;;;;;96.78;53.88;;;13.30;2201.60;;;;;;4883426;29;20059;-79
2022/12/20 08:29:02;;;;;;;108.88;54.78;;;13.10;2201.60;;;;;;4848449;29;20110;-77
2022/12/20 08:31:54;;;;;;;108.20;58.72;;;13.10;2201.60;;;;;;4878765;29;20041;-79
2022/12/20 08:35:10;;;;;;;121.20;62.90;;;13.00;2201.60;;;;;;4894078;29;20029;-79
2022/12/20 08:38:38;;;;;;;109.80;59.50;;;0.10;2201.60;;;;;;4900190;29;20025;-79
2022/12/20 08:55:43;;;;;;;166.40;93.07;;;0.60;2201.60;;;;;;4883756;29;20099;-80
2022/12/20 09:13:27;;;;;;;197.55;106.13;;;25.90;2201.60;;;;;;4829644;29;20056;-79
2022/12/20 09:30:51;;;;;;;118.47;68.65;;;26.10;2201.60;;;;;;4786769;29;20073;-79
2022/12/20 09:34:09;;;;;;;109.47;67.03;;;26.30;2201.60;;;;;;4736821;30;20110;-79
2022/12/20 09:41:07;;;;;;;119.65;71.00;;;26.40;2201.60;;;;;;4739528;30;20025;-79
2022/12/20 10:57:20;;;;;;;38.25;24.30;;;102.70;2227.20;;;;;;4918287;29;20038;-84
2022/12/20 11:00:04;;;;;;;40.78;24.20;;;102.70;2227.20;;;;;;4900690;29;20092;-84
2022/12/20 11:02:36;;;;;;;44.05;27.02;;;102.80;2227.20;;;;;;4915601;29;20056;-80
2022/12/20 11:05:11;;;;;;;36.95;22.65;;;102.90;2227.20;;;;;;4900307;29;20024;-81
2022/12/20 11:07:51;;;;;;;42.28;24.20;;;103.10;2227.20;;;;;;4898863;29;20028;-83
2022/12/20 11:10:28;;;;;;;40.75;22.65;;;103.20;2227.20;;;;;;4897663;29;20501;-83
2022/12/20 11:12:59;;;;;;;44.13;24.77;;;103.10;2227.20;;;;;;4899381;29;20491;-82
2022/12/20 11:15:31;;;;;;;61.53;32.47;;;103.30;2227.20;;;;;;4899330;29;20381;-81
2022/12/20 11:18:01;;;;;;;49.53;30.48;;;128.00;2252.80;;;;;;4899347;29;20043;-80
2022/12/20 11:20:42;;;;;;;57.38;35.78;;;128.00;2252.80;;;;;;4899371;29;20505;-80
2022/12/20 11:23:47;;;;;;;53.17;33.25;;;128.20;2252.80;;;;;;4899507;29;20035;-80
2022/12/20 11:26:18;;;;;;;62.60;36.38;;;128.30;2252.80;;;;;;4894629;29;20056;-80
2022/12/20 11:29:21;;;;;;;57.90;34.22;;;128.40;2252.80;;;;;;4899320;29;20034;-84
2022/12/20 11:32:20;;;;;;;42.67;28.43;;;128.40;2252.80;;;;;;4915839;29;20063;-85
2022/12/20 11:34:53;;;;;;;78.35;39.15;;;128.70;2252.80;;;;;;4916146;29;20028;-87
2022/12/20 11:37:39;;;;;;;60.67;34.92;;;128.90;2252.80;;;;;;4897832;29;20028;-85
2022/12/20 11:40:43;;;;;;;48.13;27.08;;;153.60;2252.80;;;;;;4898542;29;20572;-84
2022/12/20 11:43:23;;;;;;;53.80;29.13;;;154.10;2252.80;;;;;;4898306;29;20020;-87
2022/12/20 11:46:10;;;;;;;49.35;31.10;;;154.10;2252.80;;;;;;4895986;29;20055;-85
2022/12/20 11:48:45;;;;;;;60.72;37.88;;;154.30;2252.80;;;;;;4899808;29;20098;-83
2022/12/20 11:51:22;;;;;;;49.08;33.08;;;179.30;2252.80;;;;;;4896943;29;20032;-85
2022/12/20 11:54:14;;;;;;;46.50;28.80;;;;;;;;;;4896604;29;20031;-85
2022/12/20 11:56:46;;;;;;;52.00;32.17;;;;;;;;;;4887477;29;20123;-85
2022/12/20 11:59:25;;;;;;;59.45;35.63;;;179.90;2252.80;;;;;;4899686;29;20040;-84
2022/12/20 12:01:56;;;;;;;62.60;33.67;;;;;;;;;;4900220;29;20123;-84
2022/12/20 12:04:25;;;;;;;56.50;32.05;;;;;;;;;;4897648;29;20413;-86
2022/12/20 12:07:12;;;;;;;59.38;31.45;;;;;;;;;;4900179;29;20029;-85
2022/12/20 12:09:41;;;;;;;46.17;28.88;;;;;;;;;;4899637;29;20028;-86
2022/12/20 12:12:15;;;;;;;41.22;26.15;;;;;;;;;;4900479;29;20489;-86
2022/12/20 12:15:12;;;;;;;38.67;25.70;;;205.00;2252.80;;;;;;4900495;29;20040;-84
2022/12/20 12:17:41;;;;;;;45.80;32.60;;;;;;;;;;4882084;29;20069;-86
2022/12/20 12:20:39;;;;;;;45.10;30.58;;;205.20;2252.80;;;;;;4895074;29;20048;-88
2022/12/20 12:23:16;;;;;;;48.38;31.77;;;205.10;2252.80;;;;;;4899651;29;20067;-88
2022/12/20 12:25:42;;;;;;;39.67;26.50;;;205.10;2252.80;;;;;;4897349;29;20028;-86
2022/12/20 12:28:10;;;;;;;42.30;29.55;;;;;;;;;;4899649;29;20031;-89
2022/12/20 12:30:39;;;;;;;51.45;33.40;;;;;;;;;;4900163;29;20550;-90
2022/12/20 12:33:10;;;;;;;56.22;35.40;;;;;;;;;;4897745;29;20028;-88
2022/12/20 12:35:56;;;;;;;46.95;31.35;;;;;;;;;;4900326;29;20520;-88
2022/12/20 12:38:22;;;;;;;45.20;29.33;;;;;;;;;;4903443;29;20046;-87
2022/12/20 12:41:07;;;;;;;46.90;27.80;;;;;;;;;;4903030;29;20021;-88
2022/12/20 12:44:02;;;;;;;40.97;26.30;;;;;;;;;;4899655;29;20417;-87
2022/12/20 12:46:31;;;;;;;44.08;27.85;;;;;;;;;;4859523;29;20074;-87
2022/12/20 12:48:57;;;;;;;49.80;31.08;;;;;;;;;;4900151;29;20032;-87
2022/12/20 12:51:28;;;;;;;45.58;29.45;;;;;;;;;;4903105;29;20477;-88
2022/12/20 12:54:01;;;;;;;48.72;29.58;;;;;;;;;;4903097;29;20020;-88
2022/12/20 12:56:27;;;;;;;49.67;31.00;;;;;;;;;;4902259;29;20052;-88
2022/12/20 12:59:06;;;;;;;46.80;30.15;;;;;;;;;;4903221;29;20032;-87
2022/12/20 13:01:52;;;;;;;42.38;30.08;;;;;;;;;;4901432;29;20020;-90
2022/12/20 13:04:18;;;;;;;48.20;29.73;;;;;;;;;;4899591;29;20027;-87
2022/12/20 13:06:47;;;;;;;49.75;31.75;;;180.10;2252.80;;;;;;4897655;29;20107;-86
2022/12/20 13:09:25;;;;;;;51.78;31.60;;;180.00;2252.80;;;;;;4902007;29;20028;-86
2022/12/20 13:11:53;;;;;;;57.13;33.60;;;180.10;2252.80;;;;;;4896120;29;20043;-88
2022/12/20 13:14:24;;;;;;;48.88;30.55;;;205.00;2252.80;;;;;;4896989;29;20135;-88
2022/12/20 13:17:03;;;;;;;43.15;29.30;;;230.40;2252.80;;;;;;4900317;29;20067;-89
2022/12/20 13:19:35;;;;;;;55.42;34.13;;;205.50;2252.80;;;;;;4901164;29;20057;-88
2022/12/20 13:22:16;;;;;;;50.08;33.25;;;205.50;2252.80;;;;;;4907840;29;20099;-86
2022/12/20 13:24:55;;;;;;;52.25;35.60;;;205.70;2252.80;;;;;;4902498;29;20111;-88
2022/12/20 13:27:40;;;;;;;44.28;29.38;;;;;;;;;;4902762;29;20032;-88
2022/12/20 13:30:06;;;;;;;44.05;27.80;;;;;;;;;;4888683;29;20035;-87
2022/12/20 13:32:48;;;;;;;39.50;24.92;;;;;;;;;;4902252;29;20384;-86
2022/12/20 13:35:26;;;;;;;39.45;26.13;;;;;;;;;;4902283;29;20083;-86
2022/12/20 13:37:56;;;;;;;52.28;34.78;;;;;;;;;;4901934;29;20516;-85
2022/12/20 13:40:30;;;;;;;62.55;40.55;;;;;;;;;;4901733;29;20032;-85
2022/12/20 13:42:57;;;;;;;71.55;42.63;;;;;;;;;;4902056;29;20042;-86
2022/12/20 13:45:24;;;;;;;63.33;38.63;;;;;;;;;;4901819;29;20076;-83
2022/12/20 13:47:56;;;;;;;50.45;34.33;;;;;;;;;;4901550;29;20039;-82
2022/12/20 13:50:25;;;;;;;69.28;43.47;;;;;;;;;;4901504;29;20125;-83
2022/12/20 13:52:53;;;;;;;61.75;38.28;;;;;;;;;;4901680;29;20064;-84
2022/12/20 13:55:32;;;;;;;55.90;34.63;;;;;;;;;;4904767;29;20100;-85
2022/12/20 13:58:03;;;;;;;66.35;39.75;;;;;;;;;;4883385;29;20132;-85
2022/12/20 14:00:29;;;;;;;78.72;46.58;;;;;;;;;;4890775;29;20020;-84
2022/12/20 14:02:55;;;;;;;84.30;51.72;;;;;;;;;;4901946;29;20123;-88
2022/12/20 14:05:25;;;;;;;84.85;51.05;;;;;;;;;;4900535;29;20051;-82
2022/12/20 14:08:09;;;;;;;110.65;66.85;;;;;;;;;;4900799;29;20514;-86
2022/12/20 14:10:35;;;;;;;108.18;67.68;;;;;;;;;;4901986;29;20032;-86
2022/12/20 14:13:01;;;;;;;128.93;73.72;;;;;;;;;;4900633;29;20024;-86
2022/12/20 14:15:32;;;;;;;135.63;81.38;;;;;;;;;;4901844;29;20039;-86
2022/12/20 14:18:04;;;;;;;137.95;89.78;;;;;;;;;;4901232;29;20024;-85
2022/12/20 14:20:32;;;;;;;143.55;93.30;;;;;;;;;;4900405;29;20034;-86
2022/12/20 14:23:19;;;;;;;132.95;84.80;;;;;;;;;;4901832;29;20029;-85
2022/12/20 14:25:51;;;;;;;125.78;80.28;;;;;;;;;;4922250;29;20012;-82
2022/12/20 14:28:17;;;;;;;111.55;67.53;;;;;;;;;;4910208;29;20094;-85
2022/12/20 14:30:43;;;;;;;163.07;103.05;;;;;;;;;;4901690;29;20091;-86
2022/12/20 14:33:29;;;;;;;180.82;113.20;;;;;;;;;;4901607;29;20039;-84
2022/12/20 14:35:55;;;;;;;159.40;103.70;;;;;;;;;;4899934;29;20493;-87
2022/12/20 14:38:29;;;;;;;157.18;102.28;;;;;;;;;;4918055;29;20397;-87
2022/12/20 14:40:55;;;;;;;153.20;97.80;;;;;;;;;;4901568;29;20036;-85
2022/12/20 14:43:29;;;;;;;155.73;98.55;;;;;;;;;;4901276;29;20027;-85
2022/12/20 14:46:08;;;;;;;157.52;100.18;;;;;;;;;;4900882;29;20111;-86
2022/12/20 14:48:34;;;;;;;151.05;100.35;;;154.00;2252.80;;;;;;4900941;29;20036;-84
2022/12/20 14:51:03;;;;;;;147.32;97.72;;;153.60;2252.80;;;;;;4900809;29;20112;-84
2022/12/20 14:53:29;;;;;;;138.70;94.68;;;153.60;2252.80;;;;;;4901543;29;20048;-86
2022/12/20 14:55:55;;;;;;;130.23;87.75;;;128.90;2252.80;;;;;;4901533;29;20127;-84
2022/12/20 14:58:28;;;;;;;129.60;85.63;;;128.90;2252.80;;;;;;4900580;29;20044;-83
2022/12/20 15:01:01;;;;;;;136.02;82.60;;;128.80;2252.80;;;;;;4901531;29;20091;-90
2022/12/20 15:03:27;;;;;;;147.13;87.45;;;128.80;2252.80;;;;;;4901933;29;20035;-88
2022/12/20 15:06:00;;;;;;;177.65;110.25;;;128.70;2252.80;;;;;;4902359;29;20032;-91
2022/12/20 15:08:27;;;;;;;163.23;98.25;;;128.60;2252.80;;;;;;4901055;29;20024;-81
2022/12/20 15:11:02;;;;;;;146.00;89.72;;;128.60;2252.80;;;;;;4900701;29;20028;-85
2022/12/20 15:13:30;;;;;;;127.85;81.50;;;128.50;2252.80;;;;;;4909380;29;20060;-78
2022/12/20 15:16:14;;;;;;;116.47;75.55;;;128.50;2252.80;;;;;;4900854;29;20064;-85
2022/12/20 15:18:41;;;;;;;114.88;71.63;;;;;;;;;;4900915;29;20040;-84
2022/12/20 15:21:13;;;;;;;107.10;67.47;;;;;;;;;;4900782;29;20050;-80
2022/12/20 15:23:46;;;;;;;140.57;82.20;;;;;;;;;;4900661;29;20042;-83
2022/12/20 15:26:14;;;;;;;157.32;92.78;;;;;;;;;;4900053;29;20263;-84
2022/12/20 15:28:41;;;;;;;165.68;97.95;;;;;;;;;;4916868;29;20020;-83
2022/12/20 15:31:09;;;;;;;156.38;96.78;;;;;;;;;;4900431;29;20091;-83
2022/12/20 15:33:37;;;;;;;169.50;99.60;;;;;;;;;;4900187;29;20035;-82
2022/12/20 15:36:04;;;;;;;148.40;88.85;;;;;;;;;;4897816;29;20067;-86
2022/12/20 15:38:30;;;;;;;150.48;93.28;;;;;;;;;;4900524;29;20024;-83
2022/12/20 15:41:00;;;;;;;182.27;105.95;;;;;;;;;;4900396;29;20071;-85
2022/12/20 15:43:26;;;;;;;225.50;127.22;;;;;;;;;;4897929;29;20464;-81
2022/12/20 15:45:53;;;;;;;246.60;136.65;;;128.00;2252.80;;;;;;4898826;29;20024;-83
2022/12/20 15:48:21;;;;;;;235.02;135.55;;;103.20;2227.20;;;;;;4900180;29;20107;-86
2022/12/20 15:50:52;;;;;;;316.20;182.95;;;;;;;;;;4899463;29;20043;-84
2022/12/20 15:53:22;;;;;;;221.45;133.27;;;;;;;;;;4901335;29;20072;-83
2022/12/20 15:55:49;;;;;;;249.18;147.25;;;103.00;2227.20;;;;;;4901114;29;20048;-80
2022/12/20 15:58:15;;;;;;;231.45;141.25;;;102.90;2227.20;;;;;;4900396;29;20556;-81
2022/12/20 16:45:27;;;;;;;245.82;137.52;;;77.50;2227.20;;;;;;4923095;29;20031;-87
2022/12/20 17:02:48;;;;;;;247.80;137.85;;;77.20;2227.20;;;;;;4862428;29;20045;-87
2022/12/20 17:12:25;;;;;;;301.83;174.63;;;77.10;2227.20;;;;;;4885608;29;20050;-82
2022/12/20 17:14:52;;;;;;;292.52;166.35;;;77.10;2227.20;;;;;;4886804;29;20056;-86
2022/12/20 17:17:25;;;;;;;271.77;153.48;;;77.00;2227.20;;;;;;4903722;29;20059;-84
2022/12/20 17:20:00;;;;;;;347.83;176.88;;;76.90;2227.20;;;;;;4887686;29;20154;-86
2022/12/20 17:22:48;;;;;;;298.40;159.05;;;76.80;2227.20;;;;;;4902082;29;20024;-85
2022/12/20 17:25:39;;;;;;;324.35;160.18;;;77.00;2227.20;;;;;;4918094;29;20111;-86
2022/12/20 17:28:36;;;;;;;280.23;150.75;;;76.90;2227.20;;;;;;4919693;29;20036;-86
2022/12/20 17:31:24;;;;;;;295.92;157.50;;;76.90;2227.20;;;;;;4919199;29;20040;-83
2022/12/20 17:34:03;;;;;;;265.67;145.77;;;76.80;2227.20;;;;;;4902980;29;20059;-86
2022/12/20 17:36:40;;;;;;;224.70;126.88;;;76.80;2227.20;;;;;;4919505;29;20025;-86
2022/12/20 17:39:58;;;;;;;217.52;120.65;;;76.80;2227.20;;;;;;4905034;29;20393;-84
2022/12/20 17:42:48;;;;;;;370.17;223.65;;;52.10;2227.20;;;;;;4891867;29;20044;-87
2022/12/20 17:45:55;;;;;;;309.92;173.80;;;52.10;2227.20;;;;;;4900806;29;20036;-87
2022/12/20 17:48:54;;;;;;;372.05;231.45;;;52.10;2227.20;;;;;;4895218;29;20032;-85
2022/12/20 17:52:06;;;;;;;322.42;183.50;;;52.10;2227.20;;;;;;4883461;29;20045;-86
2022/12/20 17:55:20;;;;;;;372.90;212.43;;;52.00;2227.20;;;;;;4882336;29;20036;-86
2022/12/20 17:57:51;;;;;;;327.90;191.05;;;51.90;2227.20;;;;;;4899842;29;20052;-80
2022/12/20 18:00:27;;;;;;;324.02;195.82;;;52.10;2227.20;;;;;;4898780;29;20040;-83
2022/12/20 18:02:58;;;;;;;386.50;219.20;;;52.00;2227.20;;;;;;4882985;29;20036;-84
2022/12/20 18:06:18;;;;;;;371.92;214.45;;;52.00;2227.20;;;;;;4883859;29;20536;-84
2022/12/20 18:09:19;;;;;;;345.95;194.80;;;52.00;2227.20;;;;;;4890547;29;20047;-83
2022/12/20 18:11:46;;;;;;;330.98;189.60;;;52.00;2227.20;;;;;;4901900;29;20042;-84